createdAt,value
2019-04-14T00:02:46.964Z,73.97
2019-04-14T00:05:16.904Z,74.42
2019-04-14T00:08:32.705Z,74.43
2019-04-14T00:11:02.287Z,74.27
2019-04-14T00:13:32.726Z,73.94
2019-04-14T00:16:03.158Z,73.57
2019-04-14T00:18:33.723Z,73.70
2019-04-14T00:21:04.394Z,73.69
2019-04-14T00:23:34.777Z,73.54
2019-04-14T00:26:25.464Z,73.79
2019-04-14T00:28:55.610Z,73.63
2019-04-14T00:31:26.184Z,72.68
2019-04-14T00:33:58.583Z,72.23
2019-04-14T00:36:48.228Z,72.63
2019-04-14T00:39:20.704Z,73.39
2019-04-14T00:42:15.050Z,73.71
2019-04-14T00:44:51.740Z,73.99
2019-04-14T00:47:28.914Z,74.00
2019-04-14T00:49:59.400Z,74.13
2019-04-14T00:52:29.813Z,74.26
2019-04-14T00:54:59.424Z,74.09
2019-04-14T00:57:29.103Z,74.25
2019-04-14T00:59:59.534Z,74.17
2019-04-14T01:02:29.694Z,74.31
2019-04-14T01:05:00.152Z,74.31
2019-04-14T01:07:30.524Z,74.30
2019-04-14T01:10:00.219Z,74.30
2019-04-14T01:12:30.032Z,74.04
2019-04-14T01:15:00.622Z,73.74
2019-04-14T01:17:30.897Z,73.96
2019-04-14T01:20:01.436Z,74.13
2019-04-14T01:22:31.469Z,74.49
2019-04-14T01:25:02.287Z,74.65
2019-04-14T01:27:32.069Z,74.51
2019-04-14T01:30:02.674Z,73.77
2019-04-14T01:32:32.654Z,73.59
2019-04-14T01:35:03.176Z,73.31
2019-04-14T01:37:33.310Z,73.23
2019-04-14T01:40:03.313Z,73.35
2019-04-14T01:42:33.439Z,73.14
2019-04-14T01:45:03.618Z,73.09
2019-04-14T01:47:33.449Z,74.92
2019-04-14T01:50:03.797Z,73.57
2019-04-14T01:52:42.215Z,72.66
2019-04-14T01:55:39.925Z,72.75
2019-04-14T01:58:12.292Z,72.52
2019-04-14T02:00:55.387Z,72.14
2019-04-14T02:03:25.944Z,72.00
2019-04-14T02:05:56.070Z,72.26
2019-04-14T02:08:26.268Z,72.22
2019-04-14T02:10:56.565Z,72.35
2019-04-14T02:13:26.802Z,72.41
2019-04-14T02:15:57.339Z,72.10
2019-04-14T02:18:27.265Z,72.42
2019-04-14T02:20:57.887Z,72.13
2019-04-14T02:23:27.980Z,71.88
2019-04-14T02:25:58.001Z,71.46
2019-04-14T02:28:28.780Z,71.46
2019-04-14T02:31:11.990Z,71.38
2019-04-14T02:33:50.555Z,71.27
2019-04-14T02:39:15.929Z,70.82
2019-04-14T02:44:04.913Z,70.80
2019-04-14T02:46:41.952Z,70.60
2019-04-14T02:49:22.700Z,70.51
2019-04-14T02:51:50.246Z,70.38
2019-04-14T02:54:04.718Z,70.40
2019-04-14T02:56:35.842Z,70.34
2019-04-14T02:59:07.783Z,70.56
2019-04-14T03:02:09.639Z,70.67
2019-04-14T03:04:12.962Z,70.37
2019-04-14T03:06:41.631Z,70.55
2019-04-14T03:11:47.110Z,70.90
2019-04-14T03:14:15.194Z,70.89
2019-04-14T03:17:21.912Z,70.78
2019-04-14T03:20:15.281Z,70.63
2019-04-14T03:25:30.122Z,70.93
2019-04-14T03:28:38.519Z,70.87
2019-04-14T03:31:37.541Z,70.35
2019-04-14T03:38:53.387Z,70.48
2019-04-14T03:44:07.355Z,70.79
2019-04-14T03:51:26.235Z,70.26
2019-04-14T03:54:03.632Z,71.52
2019-04-14T03:56:37.547Z,70.41
2019-04-14T03:59:08.357Z,69.34
2019-04-14T04:01:39.102Z,69.33
2019-04-14T04:04:09.658Z,69.12
2019-04-14T04:06:39.924Z,68.99
2019-04-14T04:09:10.454Z,68.70
2019-04-14T04:11:41.113Z,68.29
2019-04-14T04:14:11.763Z,67.99
2019-04-14T04:16:59.507Z,68.37
2019-04-14T04:19:47.081Z,68.36
2019-04-14T04:22:33.093Z,68.43
2019-04-14T04:25:24.768Z,68.23
2019-04-14T04:28:23.211Z,68.50
2019-04-14T04:30:58.093Z,68.23
2019-04-14T04:33:50.095Z,67.98
2019-04-14T04:36:27.044Z,68.25
2019-04-14T04:39:15.472Z,67.37
2019-04-14T04:41:45.072Z,66.14
2019-04-14T04:44:15.799Z,64.60
2019-04-14T04:46:45.971Z,64.10
2019-04-14T04:49:21.066Z,64.04
2019-04-14T04:51:46.732Z,63.62
2019-04-14T04:54:16.829Z,61.54
2019-04-14T04:56:47.238Z,59.79
2019-04-14T04:59:17.095Z,58.20
2019-04-14T05:01:47.356Z,59.83
2019-04-14T05:04:17.639Z,58.42
2019-04-14T05:07:05.573Z,57.69
2019-04-14T05:09:57.743Z,57.49
2019-04-14T05:12:50.178Z,56.34
2019-04-14T05:15:48.912Z,56.22
2019-04-14T05:18:23.028Z,56.33
2019-04-14T05:20:53.216Z,53.52
2019-04-14T05:23:23.467Z,53.01
2019-04-14T05:25:53.884Z,53.33
2019-04-14T05:28:24.503Z,53.54
2019-04-14T05:30:54.691Z,54.20
2019-04-14T05:33:25.046Z,55.16
2019-04-14T05:35:55.296Z,55.68
2019-04-14T05:38:26.181Z,55.30
2019-04-14T05:40:56.285Z,55.96
2019-04-14T05:43:36.775Z,55.97
2019-04-14T05:45:56.996Z,55.71
2019-04-14T05:48:27.223Z,55.76
2019-04-14T05:50:59.896Z,55.66
2019-04-14T05:53:30.446Z,58.35
2019-04-14T05:56:01.325Z,58.34
2019-04-14T05:58:31.780Z,57.39
2019-04-14T06:01:02.421Z,57.59
2019-04-14T06:03:32.183Z,57.88
2019-04-14T06:06:01.673Z,58.47
2019-04-14T06:08:31.195Z,58.48
2019-04-14T06:11:00.739Z,59.64
2019-04-14T06:13:30.254Z,58.57
2019-04-14T06:15:59.812Z,58.44
2019-04-14T06:18:29.289Z,58.68
2019-04-14T06:20:58.767Z,58.74
2019-04-14T06:23:28.223Z,59.02
2019-04-14T06:25:57.717Z,59.15
2019-04-14T06:28:27.197Z,59.05
2019-04-14T06:31:16.444Z,58.80
2019-04-14T06:33:51.674Z,57.83
2019-04-14T06:36:45.221Z,58.18
2019-04-14T06:39:18.402Z,58.35
2019-04-14T06:41:47.854Z,58.58
2019-04-14T06:44:17.381Z,58.35
2019-04-14T06:46:46.843Z,57.99
2019-04-14T06:49:16.378Z,58.12
2019-04-14T06:51:45.858Z,58.17
2019-04-14T06:54:15.351Z,58.27
2019-04-14T06:56:44.776Z,58.42
2019-04-14T06:59:14.312Z,57.67
2019-04-14T07:01:43.831Z,57.50
2019-04-14T07:04:13.343Z,56.48
2019-04-14T07:06:42.889Z,56.41
2019-04-14T07:09:12.372Z,55.98
2019-04-14T07:11:41.853Z,56.38
2019-04-14T07:14:11.320Z,58.10
2019-04-14T07:16:40.841Z,59.18
2019-04-14T07:19:10.358Z,57.49
2019-04-14T07:21:39.909Z,57.92
2019-04-14T07:24:09.470Z,58.16
2019-04-14T07:26:38.997Z,58.24
2019-04-14T07:29:08.457Z,58.64
2019-04-14T07:32:09.297Z,58.68
2019-04-14T07:34:48.708Z,57.90
2019-04-14T07:37:35.755Z,57.03
2019-04-14T07:40:22.781Z,56.57
2019-04-14T07:42:57.779Z,55.49
2019-04-14T07:45:55.528Z,54.20
2019-04-14T07:48:38.633Z,54.15
2019-04-14T07:51:32.894Z,54.37
2019-04-14T07:54:10.297Z,54.25
2019-04-14T07:57:13.803Z,54.30
2019-04-14T08:00:20.434Z,55.06
2019-04-14T08:02:54.676Z,55.18
2019-04-14T08:05:28.833Z,56.03
2019-04-14T08:07:58.345Z,55.39
2019-04-14T08:10:27.789Z,54.82
2019-04-14T08:12:57.319Z,54.68
2019-04-14T08:15:26.839Z,54.26
2019-04-14T08:17:56.354Z,55.92
2019-04-14T08:20:27.576Z,56.76
2019-04-14T08:22:57.898Z,56.61
2019-04-14T08:25:27.584Z,56.27
2019-04-14T08:27:57.106Z,55.74
2019-04-14T08:30:26.608Z,55.00
2019-04-14T08:32:56.090Z,55.80
2019-04-14T08:35:25.684Z,56.78
2019-04-14T08:37:55.191Z,58.09
2019-04-14T08:40:24.694Z,58.40
2019-04-14T08:43:00.299Z,58.54
2019-04-14T08:48:49.627Z,57.34
2019-04-14T08:51:26.926Z,57.24
2019-04-14T08:54:15.323Z,56.33
2019-04-14T08:57:03.751Z,56.16
2019-04-14T08:59:48.988Z,55.59
2019-04-14T09:02:40.641Z,55.27
2019-04-14T09:05:28.142Z,55.45
2019-04-14T09:08:16.537Z,55.01
2019-04-14T09:10:48.553Z,54.40
2019-04-14T09:13:18.026Z,53.18
2019-04-14T09:15:47.549Z,52.83
2019-04-14T09:18:17.065Z,52.86
2019-04-14T09:20:52.519Z,52.84
2019-04-14T09:23:17.788Z,52.29
2019-04-14T09:25:47.315Z,51.47
2019-04-14T09:28:16.825Z,51.50
2019-04-14T09:30:46.328Z,50.99
2019-04-14T09:33:15.793Z,50.64
2019-04-14T09:35:45.283Z,50.22
2019-04-14T09:38:14.743Z,51.94
2019-04-14T09:40:44.243Z,52.50
2019-04-14T09:43:13.749Z,51.57
2019-04-14T09:45:43.278Z,51.17
2019-04-14T09:48:12.766Z,52.07
2019-04-14T09:50:42.255Z,50.91
2019-04-14T09:53:11.701Z,50.62
2019-04-14T09:55:41.196Z,50.17
2019-04-14T09:58:10.699Z,49.56
2019-04-14T10:00:42.127Z,49.44
2019-04-14T10:03:11.622Z,50.31
2019-04-14T10:05:41.112Z,49.46
2019-04-14T10:08:10.697Z,49.17
2019-04-14T10:10:40.226Z,49.30
2019-04-14T10:13:09.748Z,48.30
2019-04-14T10:15:39.254Z,48.62
2019-04-14T10:18:08.733Z,48.16
2019-04-14T10:20:38.285Z,48.13
2019-04-14T10:23:07.730Z,48.72
2019-04-14T10:25:37.361Z,49.07
2019-04-14T10:28:06.901Z,50.16
2019-04-14T10:30:36.367Z,50.12
2019-04-14T10:33:05.897Z,49.95
2019-04-14T10:35:35.362Z,51.27
2019-04-14T10:38:04.916Z,52.38
2019-04-14T10:40:34.899Z,53.31
2019-04-14T10:43:04.381Z,53.37
2019-04-14T10:45:33.809Z,52.21
2019-04-14T10:48:03.283Z,52.68
2019-04-14T10:50:32.791Z,52.92
2019-04-14T10:53:02.272Z,52.63
2019-04-14T10:55:31.777Z,53.27
2019-04-14T10:58:01.269Z,53.46
2019-04-14T11:00:30.695Z,53.52
2019-04-14T11:03:00.196Z,53.60
2019-04-14T11:05:33.425Z,53.68
2019-04-14T11:08:02.920Z,54.47
2019-04-14T11:10:32.448Z,54.79
2019-04-14T11:13:01.954Z,54.88
2019-04-14T11:15:31.451Z,54.41
2019-04-14T11:18:00.941Z,55.59
2019-04-14T11:20:30.406Z,55.88
2019-04-14T11:23:03.415Z,56.07
2019-04-14T11:25:31.073Z,55.27
2019-04-14T11:28:00.557Z,55.14
2019-04-14T11:30:30.091Z,53.62
2019-04-14T11:33:10.973Z,53.97
2019-04-14T11:36:05.422Z,53.88
2019-04-14T11:38:38.543Z,54.14
2019-04-14T11:41:11.347Z,54.72
2019-04-14T11:43:40.821Z,54.28
2019-04-14T11:46:10.290Z,54.98
2019-04-14T11:48:39.753Z,54.21
2019-04-14T11:51:09.229Z,53.52
2019-04-14T11:53:38.804Z,52.88
2019-04-14T11:56:08.492Z,52.85
2019-04-14T11:58:37.952Z,52.03
2019-04-14T12:01:35.895Z,52.50
2019-04-14T12:04:22.934Z,52.87
2019-04-14T12:07:09.859Z,52.11
2019-04-14T12:09:42.774Z,53.47
2019-04-14T12:12:12.281Z,53.56
2019-04-14T12:14:41.778Z,54.01
2019-04-14T12:17:11.244Z,55.40
2019-04-14T12:19:40.746Z,53.77
2019-04-14T12:22:10.248Z,53.52
2019-04-14T12:24:39.747Z,53.75
2019-04-14T12:27:09.307Z,54.67
2019-04-14T12:29:39.067Z,54.84
2019-04-14T12:32:08.961Z,53.67
2019-04-14T12:34:38.438Z,53.54
2019-04-14T12:37:07.930Z,52.84
2019-04-14T12:39:37.380Z,53.63
2019-04-14T12:42:32.064Z,53.37
2019-04-14T12:45:13.639Z,53.29
2019-04-14T12:47:51.822Z,50.58
2019-04-14T12:50:27.640Z,50.90
2019-04-14T12:52:57.459Z,48.59
2019-04-14T12:55:27.199Z,49.79
2019-04-14T12:57:59.462Z,50.63
2019-04-14T13:00:44.412Z,49.96
2019-04-14T13:03:15.307Z,49.48
2019-04-14T13:05:44.720Z,49.82
2019-04-14T13:08:14.238Z,49.28
2019-04-14T13:10:43.748Z,49.12
2019-04-14T13:13:13.267Z,49.45
2019-04-14T13:15:42.830Z,51.14
2019-04-14T13:18:12.336Z,51.42
2019-04-14T13:20:41.847Z,51.97
2019-04-14T13:23:11.372Z,52.33
2019-04-14T13:25:40.912Z,52.66
2019-04-14T13:28:10.398Z,53.06
2019-04-14T13:30:42.595Z,52.76
2019-04-14T13:33:12.104Z,52.66
2019-04-14T13:35:41.619Z,52.77
2019-04-14T13:38:11.109Z,55.52
2019-04-14T13:40:40.643Z,56.31
2019-04-14T13:43:10.202Z,56.84
2019-04-14T13:45:39.677Z,58.65
2019-04-14T13:48:09.217Z,58.96
2019-04-14T13:50:38.668Z,58.92
2019-04-14T13:53:08.267Z,57.79
2019-04-14T13:55:37.783Z,58.01
2019-04-14T13:58:07.251Z,58.12
2019-04-14T14:00:36.845Z,58.06
2019-04-14T14:03:06.352Z,58.29
2019-04-14T14:05:35.842Z,58.25
2019-04-14T14:08:05.327Z,58.24
2019-04-14T14:10:34.826Z,58.97
2019-04-14T14:13:22.654Z,58.59
2019-04-14T14:16:20.217Z,58.07
2019-04-14T14:19:08.629Z,57.79
2019-04-14T14:21:51.826Z,58.06
2019-04-14T14:24:42.924Z,58.26
2019-04-14T14:27:12.462Z,57.91
2019-04-14T14:29:41.944Z,57.75
2019-04-14T14:32:26.650Z,57.83
2019-04-14T14:34:56.082Z,58.51
2019-04-14T14:37:25.604Z,58.28
2019-04-14T14:39:55.095Z,58.45
2019-04-14T14:42:24.609Z,58.18
2019-04-14T14:45:15.834Z,58.08
2019-04-14T14:47:52.834Z,57.83
2019-04-14T14:50:33.671Z,57.78
2019-04-14T14:53:11.891Z,57.29
2019-04-14T14:55:34.388Z,57.73
2019-04-14T14:58:03.895Z,58.47
2019-04-14T15:00:34.727Z,58.75
2019-04-14T15:03:04.343Z,59.28
2019-04-14T15:05:33.778Z,58.78
2019-04-14T15:08:03.683Z,60.34
2019-04-14T15:10:33.156Z,60.90
2019-04-14T15:13:02.693Z,61.10
2019-04-14T15:15:32.092Z,61.38
2019-04-14T15:18:01.594Z,61.74
2019-04-14T15:20:31.059Z,62.12
2019-04-14T15:23:00.554Z,62.98
2019-04-14T15:25:30.047Z,63.05
2019-04-14T15:27:59.540Z,62.72
2019-04-14T15:30:29.039Z,62.46
2019-04-14T15:32:58.632Z,62.84
2019-04-14T15:35:28.113Z,62.44
2019-04-14T15:37:57.662Z,62.49
2019-04-14T15:40:27.144Z,63.00
2019-04-14T15:42:57.078Z,62.37
2019-04-14T15:45:26.580Z,62.27
2019-04-14T15:47:56.082Z,62.11
2019-04-14T15:50:25.568Z,62.11
2019-04-14T15:52:55.089Z,62.30
2019-04-14T15:55:24.587Z,61.45
2019-04-14T15:58:11.779Z,61.65
2019-04-14T16:00:59.042Z,61.53
2019-04-14T16:03:42.927Z,61.80
2019-04-14T16:06:40.941Z,62.70
2019-04-14T16:09:32.387Z,63.18
2019-04-14T16:12:19.535Z,62.98
2019-04-14T16:15:14.439Z,63.24
2019-04-14T16:18:10.535Z,62.87
2019-04-14T16:20:42.119Z,62.23
2019-04-14T16:23:11.614Z,62.12
2019-04-14T16:26:09.161Z,62.22
2019-04-14T16:28:48.140Z,62.60
2019-04-14T16:31:55.426Z,63.58
2019-04-14T16:34:28.025Z,64.43
2019-04-14T16:36:57.875Z,64.67
2019-04-14T16:39:27.388Z,64.28
2019-04-14T16:41:56.905Z,64.24
2019-04-14T16:44:26.385Z,63.64
2019-04-14T16:46:55.852Z,64.31
2019-04-14T16:49:25.409Z,64.63
2019-04-14T16:52:00.012Z,64.49
2019-04-14T16:54:43.415Z,64.49
2019-04-14T16:57:44.580Z,64.60
2019-04-14T17:00:18.146Z,64.96
2019-04-14T17:02:50.073Z,65.27
2019-04-14T17:05:18.913Z,65.57
2019-04-14T17:07:48.428Z,65.23
2019-04-14T17:10:17.926Z,64.57
2019-04-14T17:12:47.425Z,65.68
2019-04-14T17:15:35.817Z,65.93
2019-04-14T17:18:14.827Z,66.22
2019-04-14T17:21:02.277Z,66.82
2019-04-14T17:23:39.156Z,66.84
2019-04-14T17:26:30.671Z,67.59
2019-04-14T17:29:19.058Z,67.87
2019-04-14T17:32:22.660Z,67.71
2019-04-14T17:35:29.222Z,67.74
2019-04-14T17:38:02.820Z,67.08
2019-04-14T17:40:57.598Z,67.05
2019-04-14T17:43:46.006Z,67.09
2019-04-14T17:46:46.465Z,66.52
2019-04-14T17:49:38.406Z,66.44
2019-04-14T17:52:25.426Z,66.16
2019-04-14T17:55:17.916Z,66.34
2019-04-14T17:58:15.549Z,65.99
2019-04-14T18:00:53.750Z,65.47
2019-04-14T18:03:57.619Z,65.93
2019-04-14T18:06:37.141Z,66.13
2019-04-14T18:09:29.523Z,66.10
2019-04-14T18:12:23.918Z,66.08
2019-04-14T18:15:11.850Z,65.94
2019-04-14T18:17:59.454Z,65.75
2019-04-14T18:20:36.291Z,65.19
2019-04-14T18:23:05.813Z,65.21
2019-04-14T18:25:35.776Z,65.37
2019-04-14T18:28:26.434Z,65.24
2019-04-14T18:31:08.498Z,65.03
2019-04-14T18:33:55.708Z,64.56
2019-04-14T18:36:31.991Z,64.45
2019-04-14T18:39:20.410Z,64.60
2019-04-14T18:42:11.933Z,64.83
2019-04-14T18:44:54.299Z,64.64
2019-04-14T18:47:27.133Z,64.83
2019-04-14T18:50:15.537Z,64.82
2019-04-14T18:52:55.979Z,64.71
2019-04-14T18:55:32.460Z,64.75
2019-04-14T18:58:10.334Z,64.83
2019-04-14T19:00:43.990Z,64.83
2019-04-14T19:03:13.498Z,65.10
2019-04-14T19:05:42.941Z,64.99
2019-04-14T19:08:12.461Z,65.01
2019-04-14T19:10:44.059Z,65.05
2019-04-14T19:13:26.631Z,65.06
2019-04-14T19:16:01.036Z,65.14
2019-04-14T19:18:39.888Z,65.19
2019-04-14T19:21:12.044Z,65.40
2019-04-14T19:23:41.511Z,65.41
2019-04-14T19:26:10.978Z,65.00
2019-04-14T19:28:40.502Z,64.97
2019-04-14T19:31:10.009Z,64.96
2019-04-14T19:33:39.482Z,64.86
2019-04-14T19:36:09.328Z,64.97
2019-04-14T19:38:38.827Z,66.17
2019-04-14T19:41:08.659Z,66.32
2019-04-14T19:43:38.138Z,66.82
2019-04-14T19:46:07.613Z,66.79
2019-04-14T19:48:37.056Z,67.02
2019-04-14T19:51:06.608Z,66.87
2019-04-14T19:53:36.085Z,66.74
2019-04-14T19:56:05.620Z,66.56
2019-04-14T19:58:35.082Z,66.64
2019-04-14T20:01:07.190Z,66.54
2019-04-14T20:03:36.258Z,66.50
2019-04-14T20:06:05.718Z,66.41
2019-04-14T20:08:35.209Z,66.39
2019-04-14T20:11:04.916Z,66.37
2019-04-14T20:13:39.103Z,66.46
2019-04-14T20:16:26.383Z,66.70
2019-04-14T20:19:10.387Z,66.64
2019-04-14T20:21:54.191Z,66.63
2019-04-14T20:24:32.734Z,66.70
2019-04-14T20:27:09.278Z,66.39
2019-04-14T20:29:41.856Z,66.02
2019-04-14T20:32:14.183Z,66.73
2019-04-14T20:34:43.683Z,66.85
2019-04-14T20:37:13.636Z,67.08
2019-04-14T20:39:43.124Z,67.01
2019-04-14T20:42:12.692Z,67.26
2019-04-14T20:44:42.187Z,67.39
2019-04-14T20:47:11.739Z,67.57
2019-04-14T20:49:41.243Z,68.02
2019-04-14T20:52:10.808Z,67.77
2019-04-14T20:54:40.318Z,67.60
2019-04-14T20:57:09.796Z,67.59
2019-04-14T20:59:39.252Z,67.50
2019-04-14T21:02:33.442Z,67.29
2019-04-14T21:05:17.905Z,67.39
2019-04-14T21:08:09.499Z,67.28
2019-04-14T21:10:43.419Z,67.25
2019-04-14T21:13:30.712Z,67.16
2019-04-14T21:16:12.789Z,66.89
2019-04-14T21:18:53.110Z,67.03
2019-04-14T21:21:37.355Z,66.86
2019-04-14T21:24:17.132Z,66.88
2019-04-14T21:26:58.114Z,67.37
2019-04-14T21:29:55.535Z,67.05
2019-04-14T21:32:28.952Z,67.01
2019-04-14T21:35:14.246Z,67.09
2019-04-14T21:38:01.776Z,67.00
2019-04-14T21:41:02.522Z,67.26
2019-04-14T21:43:32.051Z,67.32
2019-04-14T21:46:01.531Z,67.51
2019-04-14T21:48:31.035Z,67.91
2019-04-14T21:51:00.527Z,67.95
2019-04-14T21:53:29.965Z,67.86
2019-04-14T21:56:12.479Z,68.23
2019-04-14T21:58:39.739Z,68.78
2019-04-14T22:01:55.158Z,69.44
2019-04-14T22:04:53.551Z,69.88
2019-04-14T22:07:46.043Z,70.49
2019-04-14T22:10:22.558Z,70.82
2019-04-14T22:12:52.109Z,70.64
2019-04-14T22:15:21.606Z,70.98
2019-04-14T22:17:51.100Z,71.47
2019-04-14T22:20:20.567Z,71.02
2019-04-14T22:22:50.089Z,70.98
2019-04-14T22:25:19.522Z,71.08
2019-04-14T22:27:49.120Z,70.75
2019-04-14T22:30:18.711Z,70.75
2019-04-14T22:32:48.204Z,70.61
2019-04-14T22:35:17.699Z,70.55
2019-04-14T22:37:47.178Z,70.25
2019-04-14T22:40:16.745Z,70.15
2019-04-14T22:42:46.236Z,70.36
2019-04-14T22:45:15.866Z,69.90
2019-04-14T22:47:45.333Z,69.98
2019-04-14T22:50:14.868Z,69.51
2019-04-14T22:52:44.413Z,70.34
2019-04-14T22:55:14.009Z,71.30
2019-04-14T22:57:43.498Z,71.45
2019-04-14T23:00:18.774Z,71.65
2019-04-14T23:03:01.870Z,71.24
2019-04-14T23:06:08.441Z,71.02
2019-04-14T23:08:42.098Z,71.14
2019-04-14T23:11:30.529Z,72.52
2019-04-14T23:14:34.000Z,72.94
2019-04-14T23:17:34.579Z,72.85
2019-04-14T23:20:26.803Z,73.07
2019-04-14T23:23:18.060Z,73.26
2019-04-14T23:25:47.545Z,72.86
2019-04-14T23:28:17.025Z,72.65
2019-04-14T23:30:46.502Z,72.23
2019-04-14T23:33:15.973Z,72.40
2019-04-14T23:35:45.446Z,72.41
2019-04-14T23:38:14.917Z,73.00
2019-04-14T23:40:44.433Z,72.67
2019-04-14T23:43:13.906Z,72.29
2019-04-14T23:45:43.401Z,72.60
2019-04-14T23:48:12.864Z,72.64
2019-04-14T23:50:42.338Z,73.08
2019-04-14T23:53:11.845Z,73.57
2019-04-14T23:55:41.410Z,73.79
2019-04-14T23:58:10.912Z,74.79
